createdAt,value
2022-08-08T00:00:56.162Z,100.00
2022-08-08T00:03:32.216Z,100.00
2022-08-08T00:06:14.695Z,100.00
2022-08-08T00:09:02.287Z,100.00
2022-08-08T00:12:03.055Z,100.00
2022-08-08T00:15:04.976Z,100.00
2022-08-08T00:18:04.272Z,100.00
2022-08-08T00:20:49.509Z,100.00
2022-08-08T00:23:43.061Z,100.00
2022-08-08T00:26:30.154Z,100.00
2022-08-08T00:29:44.822Z,100.00
2022-08-08T00:32:37.787Z,100.00
2022-08-08T00:35:39.744Z,100.00
2022-08-08T00:38:16.717Z,100.00
2022-08-08T00:41:15.037Z,100.00
2022-08-08T00:44:02.616Z,100.00
2022-08-08T00:46:56.803Z,100.00
2022-08-08T00:50:03.525Z,100.00
2022-08-08T00:53:18.319Z,100.00
2022-08-08T00:56:21.145Z,100.00
2022-08-08T00:59:43.174Z,100.00
2022-08-08T01:03:58.370Z,100.00
2022-08-08T01:06:03.237Z,100.00
2022-08-08T01:09:35.903Z,100.00
2022-08-08T01:12:48.501Z,100.00
2022-08-08T01:15:54.668Z,100.00
2022-08-08T01:19:13.609Z,100.00
2022-08-08T01:22:23.624Z,100.00
2022-08-08T01:25:40.804Z,100.00
2022-08-08T01:28:56.104Z,100.00
2022-08-08T01:32:13.343Z,100.00
2022-08-08T01:35:14.783Z,100.00
2022-08-08T01:38:10.428Z,100.00
2022-08-08T01:40:55.679Z,100.00
2022-08-08T01:43:40.241Z,100.00
2022-08-08T01:46:52.836Z,100.00
2022-08-08T01:50:20.015Z,100.00
2022-08-08T01:55:14.655Z,100.00
2022-08-08T01:56:30.631Z,100.00
2022-08-08T02:00:01.761Z,100.00
2022-08-08T02:02:58.836Z,100.00
2022-08-08T02:05:59.402Z,100.00
2022-08-08T02:08:47.436Z,100.00
2022-08-08T02:11:58.818Z,100.00
2022-08-08T02:14:55.621Z,100.00
2022-08-08T02:17:51.692Z,100.00
2022-08-08T02:21:20.247Z,100.00
2022-08-08T02:24:29.076Z,100.00
2022-08-08T02:27:42.652Z,100.00
2022-08-08T02:31:43.972Z,100.00
2022-08-08T02:34:33.196Z,100.00
2022-08-08T02:37:51.406Z,100.00
2022-08-08T02:40:57.037Z,100.00
2022-08-08T02:44:37.408Z,100.00
2022-08-08T02:47:55.179Z,100.00
2022-08-08T02:50:40.447Z,100.00
2022-08-08T02:53:28.712Z,100.00
2022-08-08T02:56:33.381Z,100.00
2022-08-08T02:59:57.931Z,100.00
2022-08-08T03:03:11.418Z,100.00
2022-08-08T03:06:24.015Z,100.00
2022-08-08T03:09:59.261Z,100.00
2022-08-08T03:14:15.781Z,100.00
2022-08-08T03:16:39.042Z,100.00
2022-08-08T03:20:11.535Z,100.00
2022-08-08T03:22:56.985Z,100.00
2022-08-08T03:25:36.163Z,100.00
2022-08-08T03:28:13.976Z,100.00
2022-08-08T03:30:48.977Z,100.00
2022-08-08T03:33:54.904Z,100.00
2022-08-08T03:36:27.556Z,100.00
2022-08-08T03:39:15.299Z,100.00
2022-08-08T03:42:13.152Z,100.00
2022-08-08T03:44:38.689Z,100.00
2022-08-08T03:47:19.271Z,100.00
2022-08-08T03:50:00.918Z,100.00
2022-08-08T03:52:37.007Z,100.00
2022-08-08T03:55:20.240Z,100.00
2022-08-08T03:58:30.195Z,100.00
2022-08-08T04:01:23.807Z,100.00
2022-08-08T04:03:59.646Z,100.00
2022-08-08T04:06:38.044Z,100.00
2022-08-08T04:09:11.178Z,100.00
2022-08-08T04:11:58.248Z,100.00
2022-08-08T04:14:38.578Z,100.00
2022-08-08T04:17:22.216Z,100.00
2022-08-08T04:19:56.621Z,100.00
2022-08-08T04:22:29.771Z,100.00
2022-08-08T04:24:59.011Z,100.00
2022-08-08T04:28:02.978Z,100.00
2022-08-08T04:30:18.552Z,100.00
2022-08-08T04:32:50.390Z,100.00
2022-08-08T04:35:22.659Z,100.00
2022-08-08T04:37:53.637Z,100.00
2022-08-08T04:40:26.118Z,100.00
2022-08-08T04:43:01.119Z,100.00
2022-08-08T04:45:40.477Z,100.00
2022-08-08T04:48:08.713Z,100.00
2022-08-08T04:50:45.894Z,100.00
2022-08-08T04:54:27.063Z,100.00
2022-08-08T04:56:09.153Z,100.00
2022-08-08T04:58:38.188Z,100.00
2022-08-08T05:01:10.852Z,100.00
2022-08-08T05:04:10.628Z,100.00
2022-08-08T05:06:36.307Z,100.00
2022-08-08T05:09:05.977Z,100.00
2022-08-08T05:11:39.604Z,100.00
2022-08-08T05:14:12.789Z,100.00
2022-08-08T05:16:54.856Z,100.00
2022-08-08T05:20:11.634Z,100.00
2022-08-08T05:22:23.154Z,100.00
2022-08-08T05:24:51.895Z,100.00
2022-08-08T05:27:22.069Z,100.00
2022-08-08T05:29:52.597Z,100.00
2022-08-08T05:32:27.365Z,100.00
2022-08-08T05:35:01.815Z,100.00
2022-08-08T05:37:51.839Z,100.00
2022-08-08T05:40:28.685Z,100.00
2022-08-08T05:43:38.701Z,100.00
2022-08-08T05:46:08.549Z,100.00
2022-08-08T05:48:41.783Z,100.00
2022-08-08T05:51:14.949Z,100.00
2022-08-08T05:54:26.013Z,100.00
2022-08-08T05:56:42.308Z,100.00
2022-08-08T05:59:58.830Z,100.00
2022-08-08T06:02:43.621Z,100.00
2022-08-08T06:05:32.996Z,100.00
2022-08-08T06:08:09.363Z,100.00
2022-08-08T06:10:40.915Z,100.00
2022-08-08T06:13:12.299Z,100.00
2022-08-08T06:15:51.090Z,100.00
2022-08-08T06:18:28.270Z,100.00
2022-08-08T06:21:03.683Z,100.00
2022-08-08T06:23:53.281Z,100.00
2022-08-08T06:26:43.360Z,100.00
2022-08-08T06:29:26.490Z,100.00
2022-08-08T06:32:18.464Z,100.00
2022-08-08T06:35:11.814Z,100.00
2022-08-08T06:38:04.502Z,100.00
2022-08-08T06:40:38.824Z,100.00
2022-08-08T06:43:34.110Z,100.00
2022-08-08T06:46:13.288Z,75.13
2022-08-08T06:48:46.635Z,60.23
2022-08-08T06:51:16.366Z,52.91
2022-08-08T06:53:50.979Z,52.08
2022-08-08T06:56:25.172Z,47.06
2022-08-08T06:58:54.548Z,43.57
2022-08-08T07:02:27.295Z,43.30
2022-08-08T07:04:37.224Z,45.24
2022-08-08T07:07:12.283Z,47.09
2022-08-08T07:09:59.565Z,47.07
2022-08-08T07:12:47.931Z,45.54
2022-08-08T07:16:05.319Z,45.72
2022-08-08T07:19:06.413Z,43.73
2022-08-08T07:22:12.156Z,41.08
2022-08-08T07:25:04.123Z,40.47
2022-08-08T07:28:01.764Z,36.49
2022-08-08T07:30:31.687Z,36.94
2022-08-08T07:33:01.078Z,38.36
2022-08-08T07:35:35.474Z,36.19
2022-08-08T07:38:10.630Z,35.65
2022-08-08T07:41:04.475Z,33.89
2022-08-08T07:43:37.018Z,32.66
2022-08-08T07:46:24.545Z,31.40
2022-08-08T07:48:58.494Z,32.85
2022-08-08T07:51:45.332Z,33.96
2022-08-08T07:54:40.039Z,33.26
2022-08-08T07:57:52.067Z,33.18
2022-08-08T08:00:23.952Z,40.60
2022-08-08T08:03:20.783Z,39.73
2022-08-08T08:05:55.719Z,39.93
2022-08-08T08:08:50.301Z,41.53
2022-08-08T08:11:23.577Z,39.13
2022-08-08T08:14:11.437Z,39.08
2022-08-08T08:16:50.408Z,39.38
2022-08-08T08:19:20.024Z,38.18
2022-08-08T08:21:57.210Z,35.53
2022-08-08T08:24:35.149Z,33.52
2022-08-08T08:27:04.371Z,33.67
2022-08-08T08:29:36.189Z,30.90
2022-08-08T08:32:06.177Z,29.12
2022-08-08T08:34:37.764Z,30.83
2022-08-08T08:37:12.501Z,29.83
2022-08-08T08:40:01.640Z,29.55
2022-08-08T08:42:36.160Z,30.82
2022-08-08T08:45:21.120Z,29.08
2022-08-08T08:47:58.211Z,30.54
2022-08-08T08:50:33.051Z,30.71
2022-08-08T08:53:54.958Z,36.20
2022-08-08T08:56:08.497Z,34.92
2022-08-08T08:58:50.191Z,32.53
2022-08-08T09:01:36.585Z,32.62
2022-08-08T09:04:30.929Z,31.13
2022-08-08T09:07:13.713Z,27.88
2022-08-08T09:09:57.160Z,27.98
2022-08-08T09:12:29.335Z,30.66
2022-08-08T09:14:59.297Z,30.34
2022-08-08T09:17:40.770Z,29.83
2022-08-08T09:21:56.926Z,30.92
2022-08-08T09:23:05.241Z,31.22
2022-08-08T09:25:54.641Z,35.14
2022-08-08T09:28:37.374Z,36.91
2022-08-08T09:31:26.445Z,38.74
2022-08-08T09:34:30.800Z,36.35
2022-08-08T09:37:57.336Z,39.58
2022-08-08T09:40:10.967Z,37.75
2022-08-08T09:42:51.495Z,40.34
2022-08-08T09:46:00.855Z,41.26
2022-08-08T09:48:18.595Z,43.01
2022-08-08T09:50:55.764Z,46.82
2022-08-08T09:53:59.978Z,45.70
2022-08-08T09:56:41.411Z,44.46
2022-08-08T10:02:29.390Z,44.72
2022-08-08T10:05:26.176Z,35.11
2022-08-08T10:07:59.714Z,38.46
2022-08-08T10:10:50.866Z,37.98
2022-08-08T10:13:29.999Z,36.74
2022-08-08T10:16:03.510Z,35.33
2022-08-08T10:18:36.657Z,34.51
2022-08-08T10:21:25.865Z,35.28
2022-08-08T10:24:03.603Z,33.84
2022-08-08T10:26:52.405Z,33.14
2022-08-08T10:30:16.447Z,34.89
2022-08-08T10:33:02.485Z,38.22
2022-08-08T10:36:09.181Z,35.08
2022-08-08T10:38:20.853Z,32.26
2022-08-08T10:40:53.085Z,32.83
2022-08-08T10:43:23.152Z,36.00
2022-08-08T10:45:54.979Z,36.38
2022-08-08T10:48:57.453Z,38.22
2022-08-08T10:51:31.403Z,41.54
2022-08-08T10:54:08.556Z,39.50
2022-08-08T10:56:43.076Z,42.28
2022-08-08T10:59:14.268Z,41.30
2022-08-08T11:01:49.477Z,40.96
2022-08-08T11:04:29.523Z,43.13
2022-08-08T11:07:01.143Z,43.36
2022-08-08T11:09:32.154Z,42.33
2022-08-08T11:12:12.470Z,42.32
2022-08-08T11:15:15.547Z,44.13
2022-08-08T11:18:00.017Z,44.68
2022-08-08T11:20:29.862Z,44.93
2022-08-08T11:23:05.583Z,43.46
2022-08-08T11:25:52.639Z,46.87
2022-08-08T11:28:29.610Z,45.35
2022-08-08T11:31:03.973Z,46.58
2022-08-08T11:33:52.887Z,46.91
2022-08-08T11:36:23.532Z,48.19
2022-08-08T11:38:57.591Z,47.92
2022-08-08T11:41:28.219Z,46.62
2022-08-08T11:44:01.313Z,47.27
2022-08-08T11:46:32.729Z,46.11
2022-08-08T11:49:09.406Z,49.94
2022-08-08T11:51:49.795Z,47.76
2022-08-08T11:54:38.269Z,46.44
2022-08-08T11:57:43.057Z,45.77
2022-08-08T12:00:17.970Z,47.69
2022-08-08T12:02:56.138Z,47.55
2022-08-08T12:05:36.352Z,49.32
2022-08-08T12:08:04.785Z,48.54
2022-08-08T12:10:32.614Z,47.77
2022-08-08T12:13:05.442Z,43.58
2022-08-08T12:15:43.052Z,47.09
2022-08-08T12:18:24.919Z,48.86
2022-08-08T12:20:58.817Z,48.78
2022-08-08T12:23:43.904Z,47.60
2022-08-08T12:26:27.444Z,49.80
2022-08-08T12:29:21.418Z,51.24
2022-08-08T12:32:13.600Z,51.13
2022-08-08T12:35:13.716Z,49.71
2022-08-08T12:38:01.165Z,54.41
2022-08-08T12:40:57.167Z,50.64
2022-08-08T12:43:47.521Z,50.54
2022-08-08T12:46:24.840Z,51.57
2022-08-08T12:49:25.137Z,50.98
2022-08-08T12:51:58.444Z,50.45
2022-08-08T12:54:41.042Z,53.10
2022-08-08T12:57:24.300Z,53.66
2022-08-08T13:00:04.991Z,50.60
2022-08-08T13:02:37.902Z,50.40
2022-08-08T13:05:27.118Z,49.18
2022-08-08T13:08:17.798Z,49.71
2022-08-08T13:10:56.517Z,51.17
2022-08-08T13:13:34.893Z,47.66
2022-08-08T13:16:38.338Z,51.26
2022-08-08T13:19:12.326Z,46.79
2022-08-08T13:21:53.263Z,49.59
2022-08-08T13:24:42.201Z,50.64
2022-08-08T13:27:20.036Z,49.21
2022-08-08T13:30:05.897Z,50.58
2022-08-08T13:32:39.398Z,51.73
2022-08-08T13:35:11.761Z,51.07
2022-08-08T13:38:06.751Z,52.06
2022-08-08T13:40:35.640Z,55.16
2022-08-08T13:43:04.038Z,52.52
2022-08-08T13:45:31.915Z,50.80
2022-08-08T13:48:04.237Z,51.03
2022-08-08T13:50:49.308Z,51.65
2022-08-08T13:53:36.218Z,50.89
2022-08-08T13:56:11.868Z,52.23
2022-08-08T13:58:56.317Z,54.93
2022-08-08T14:01:32.749Z,52.15
2022-08-08T14:04:25.090Z,51.70
2022-08-08T14:07:04.701Z,52.32
2022-08-08T14:10:05.289Z,52.10
2022-08-08T14:12:35.013Z,50.98
2022-08-08T14:15:03.880Z,52.29
2022-08-08T14:17:58.286Z,50.88
2022-08-08T14:20:57.537Z,50.37
2022-08-08T14:23:30.057Z,50.26
2022-08-08T14:26:10.889Z,52.06
2022-08-08T14:28:49.988Z,49.54
2022-08-08T14:31:23.349Z,50.89
2022-08-08T14:34:03.883Z,51.54
2022-08-08T14:36:35.971Z,52.18
2022-08-08T14:39:11.732Z,52.87
2022-08-08T14:41:53.770Z,51.81
2022-08-08T14:44:35.248Z,51.52
2022-08-08T14:47:21.310Z,52.63
2022-08-08T14:50:06.908Z,53.38
2022-08-08T14:52:53.137Z,52.54
2022-08-08T14:55:22.693Z,50.91
2022-08-08T14:58:11.719Z,53.89
2022-08-08T15:00:43.469Z,55.05
2022-08-08T15:03:15.007Z,53.85
2022-08-08T15:05:53.633Z,53.01
2022-08-08T15:08:35.033Z,53.72
2022-08-08T15:11:11.402Z,54.16
2022-08-08T15:14:01.026Z,53.77
2022-08-08T15:16:28.225Z,53.19
2022-08-08T15:18:55.846Z,54.69
2022-08-08T15:21:27.707Z,51.38
2022-08-08T15:23:58.128Z,53.98
2022-08-08T15:26:29.021Z,54.84
2022-08-08T15:28:57.376Z,53.79
2022-08-08T15:31:55.633Z,56.71
2022-08-08T15:34:29.653Z,57.35
2022-08-08T15:37:02.382Z,54.68
2022-08-08T15:39:38.017Z,55.02
2022-08-08T15:42:13.286Z,55.28
2022-08-08T15:44:52.008Z,54.56
2022-08-08T15:47:22.551Z,54.64
2022-08-08T15:49:50.895Z,55.80
2022-08-08T15:52:21.842Z,54.49
2022-08-08T15:54:52.265Z,54.00
2022-08-08T15:57:22.362Z,55.83
2022-08-08T16:00:26.209Z,54.19
2022-08-08T16:02:50.527Z,55.54
2022-08-08T16:05:21.551Z,53.49
2022-08-08T16:07:53.920Z,54.68
2022-08-08T16:13:09.627Z,56.18
2022-08-08T16:13:32.192Z,55.04
2022-08-08T16:16:09.495Z,52.79
2022-08-08T16:18:53.213Z,53.47
2022-08-08T16:21:32.096Z,55.69
2022-08-08T16:24:10.073Z,54.69
2022-08-08T16:26:42.255Z,55.33
2022-08-08T16:29:17.771Z,56.01
2022-08-08T16:31:49.099Z,56.98
2022-08-08T16:34:20.707Z,57.48
2022-08-08T16:36:52.761Z,59.41
2022-08-08T16:39:59.942Z,56.32
2022-08-08T16:42:17.808Z,54.37
2022-08-08T16:44:53.931Z,56.66
2022-08-08T16:47:41.516Z,57.07
2022-08-08T16:50:16.836Z,57.78
2022-08-08T16:55:01.764Z,58.54
2022-08-08T16:55:55.472Z,58.06
2022-08-08T16:58:31.718Z,58.16
2022-08-08T17:01:10.889Z,59.24
2022-08-08T17:03:58.973Z,59.49
2022-08-08T17:06:36.402Z,61.38
2022-08-08T17:09:07.241Z,61.95
2022-08-08T17:11:49.306Z,60.01
2022-08-08T17:14:34.246Z,61.74
2022-08-08T17:17:04.834Z,61.74
2022-08-08T17:19:41.005Z,61.99
2022-08-08T17:22:09.877Z,61.95
2022-08-08T17:24:37.506Z,60.48
2022-08-08T17:27:05.587Z,62.98
2022-08-08T17:29:36.636Z,63.04
2022-08-08T17:32:11.433Z,63.24
2022-08-08T17:35:14.690Z,61.91
2022-08-08T17:37:27.544Z,67.00
2022-08-08T17:40:05.673Z,67.57
2022-08-08T17:42:40.823Z,69.89
2022-08-08T17:45:14.313Z,75.20
2022-08-08T17:47:50.751Z,79.74
2022-08-08T17:50:18.604Z,82.46
2022-08-08T17:52:47.825Z,83.22
2022-08-08T17:56:03.449Z,84.53
2022-08-08T17:58:03.328Z,85.37
2022-08-08T18:00:31.761Z,88.56
2022-08-08T18:03:07.447Z,88.98
2022-08-08T18:05:48.555Z,88.43
2022-08-08T18:08:37.990Z,92.33
2022-08-08T18:11:15.816Z,91.49
2022-08-08T18:13:47.227Z,91.90
2022-08-08T18:16:17.101Z,92.96
2022-08-08T18:18:53.740Z,92.97
2022-08-08T18:22:00.143Z,93.60
2022-08-08T18:24:21.370Z,94.46
2022-08-08T18:27:17.509Z,97.80
2022-08-08T18:34:12.411Z,100.00
2022-08-08T18:36:51.678Z,100.00
2022-08-08T18:39:28.390Z,100.00
2022-08-08T18:42:02.986Z,100.00
2022-08-08T18:44:35.847Z,100.00
2022-08-08T18:47:04.731Z,100.00
2022-08-08T18:49:41.162Z,100.00
2022-08-08T18:52:23.408Z,100.00
2022-08-08T18:55:10.933Z,100.00
2022-08-08T18:57:44.700Z,100.00
2022-08-08T19:00:20.385Z,100.00
2022-08-08T19:02:55.952Z,100.00
2022-08-08T19:05:34.085Z,100.00
2022-08-08T19:08:29.540Z,100.00
2022-08-08T19:11:01.813Z,100.00
2022-08-08T19:13:53.529Z,100.00
2022-08-08T19:16:20.266Z,100.00
2022-08-08T19:19:02.176Z,100.00
2022-08-08T19:21:47.831Z,100.00
2022-08-08T19:24:42.758Z,100.00
2022-08-08T19:27:06.964Z,100.00
2022-08-08T19:29:40.641Z,96.64
2022-08-08T19:32:13.110Z,92.10
2022-08-08T19:34:49.370Z,95.60
2022-08-08T19:37:42.025Z,100.00
2022-08-08T19:40:14.695Z,100.00
2022-08-08T19:42:45.818Z,100.00
2022-08-08T19:45:57.696Z,100.00
2022-08-08T19:48:04.971Z,100.00
2022-08-08T19:50:35.842Z,100.00
2022-08-08T19:53:04.389Z,100.00
2022-08-08T19:55:52.171Z,100.00
2022-08-08T19:58:19.656Z,100.00
2022-08-08T20:00:53.098Z,100.00
2022-08-08T20:04:00.906Z,100.00
2022-08-08T20:06:15.311Z,100.00
2022-08-08T20:08:48.201Z,100.00
2022-08-08T20:11:16.422Z,100.00
2022-08-08T20:14:31.472Z,100.00
2022-08-08T20:16:34.223Z,100.00
2022-08-08T20:19:04.008Z,100.00
2022-08-08T20:21:37.948Z,100.00
2022-08-08T20:24:07.970Z,100.00
2022-08-08T20:26:38.144Z,100.00
2022-08-08T20:29:08.571Z,100.00
2022-08-08T20:32:02.702Z,100.00
2022-08-08T20:34:31.223Z,100.00
2022-08-08T20:37:04.459Z,100.00
2022-08-08T20:39:41.862Z,100.00
2022-08-08T20:42:28.425Z,100.00
2022-08-08T20:44:58.523Z,100.00
2022-08-08T20:47:26.789Z,100.00
2022-08-08T20:50:05.449Z,100.00
2022-08-08T20:52:35.893Z,100.00
2022-08-08T20:55:16.483Z,100.00
2022-08-08T20:57:51.105Z,100.00
2022-08-08T21:00:18.883Z,100.00
2022-08-08T21:02:48.532Z,100.00
2022-08-08T21:05:20.218Z,100.00
2022-08-08T21:08:37.335Z,100.00
2022-08-08T21:10:37.364Z,100.00
2022-08-08T21:13:08.804Z,100.00
2022-08-08T21:16:05.971Z,100.00
2022-08-08T21:18:24.738Z,100.00
2022-08-08T21:20:55.758Z,100.00
2022-08-08T21:23:58.970Z,100.00
2022-08-08T21:26:11.713Z,100.00
2022-08-08T21:28:39.957Z,100.00
2022-08-08T21:31:23.154Z,100.00
2022-08-08T21:33:54.562Z,100.00
2022-08-08T21:36:28.910Z,100.00
2022-08-08T21:38:58.140Z,100.00
2022-08-08T21:41:38.212Z,100.00
2022-08-08T21:44:12.140Z,100.00
2022-08-08T21:48:05.599Z,100.00
2022-08-08T21:49:29.862Z,100.00
2022-08-08T21:54:18.366Z,100.00
2022-08-08T21:54:58.109Z,100.00
2022-08-08T21:57:29.924Z,100.00
2022-08-08T22:00:14.467Z,100.00
2022-08-08T22:02:44.226Z,100.00
2022-08-08T22:05:15.053Z,100.00
2022-08-08T22:07:48.047Z,100.00
2022-08-08T22:10:28.757Z,100.00
2022-08-08T22:13:17.767Z,100.00
2022-08-08T22:15:58.504Z,100.00
2022-08-08T22:18:35.289Z,100.00
2022-08-08T22:21:13.850Z,100.00
2022-08-08T22:23:51.873Z,100.00
2022-08-08T22:26:29.728Z,100.00
2022-08-08T22:29:04.794Z,100.00
2022-08-08T22:32:01.853Z,100.00
2022-08-08T22:34:39.590Z,100.00
2022-08-08T22:37:14.874Z,100.00
2022-08-08T22:40:00.237Z,100.00
2022-08-08T22:42:34.328Z,100.00
2022-08-08T22:45:12.370Z,100.00
2022-08-08T22:47:47.147Z,100.00
2022-08-08T22:50:26.455Z,100.00
2022-08-08T22:54:27.603Z,100.00
2022-08-08T22:55:57.922Z,100.00
2022-08-08T22:58:34.394Z,100.00
2022-08-08T23:02:01.287Z,100.00
2022-08-08T23:03:58.626Z,100.00
2022-08-08T23:06:26.702Z,100.00
2022-08-08T23:08:58.665Z,100.00
2022-08-08T23:11:30.856Z,100.00
2022-08-08T23:14:20.733Z,100.00
2022-08-08T23:16:57.700Z,100.00
2022-08-08T23:19:30.929Z,100.00
2022-08-08T23:22:05.475Z,100.00
2022-08-08T23:24:36.650Z,100.00
2022-08-08T23:27:10.684Z,100.00
2022-08-08T23:29:39.005Z,100.00
2022-08-08T23:32:10.847Z,100.00
2022-08-08T23:34:39.516Z,100.00
2022-08-08T23:37:17.038Z,100.00
2022-08-08T23:39:55.449Z,100.00
2022-08-08T23:42:25.199Z,100.00
2022-08-08T23:44:55.018Z,100.00
2022-08-08T23:49:08.765Z,100.00
2022-08-08T23:50:14.961Z,100.00
2022-08-08T23:52:58.961Z,100.00
2022-08-08T23:55:31.972Z,100.00
2022-08-08T23:58:01.738Z,100.00
